sensor_id;sensor_type;location;lat;lon;timestamp;pressure;altitude;pressure_sealevel;temperature;humidity
16030;BME280;34770;49.272;11.070;2024-02-23T00:01:28;95533.09;;;8.98;78.63
16030;BME280;34770;49.272;11.070;2024-02-23T00:03:53;95542.38;;;8.81;80.75
16030;BME280;34770;49.272;11.070;2024-02-23T00:06:21;95580.50;;;8.55;85.66
16030;BME280;34770;49.272;11.070;2024-02-23T00:08:48;95564.28;;;8.32;86.29
16030;BME280;34770;49.272;11.070;2024-02-23T00:11:13;95568.53;;;8.18;84.62
16030;BME280;34770;49.272;11.070;2024-02-23T00:13:39;95570.22;;;8.11;85.40
16030;BME280;34770;49.272;11.070;2024-02-23T00:16:04;95580.38;;;8.09;85.62
16030;BME280;34770;49.272;11.070;2024-02-23T00:18:30;95542.69;;;7.93;85.88
16030;BME280;34770;49.272;11.070;2024-02-23T00:20:55;95581.03;;;8.11;82.13
16030;BME280;34770;49.272;11.070;2024-02-23T00:23:21;95585.34;;;8.29;81.81
16030;BME280;34770;49.272;11.070;2024-02-23T00:25:47;95596.34;;;8.19;81.26
16030;BME280;34770;49.272;11.070;2024-02-23T00:28:13;95602.09;;;8.16;81.58
16030;BME280;34770;49.272;11.070;2024-02-23T00:30:38;95578.56;;;8.02;80.10
16030;BME280;34770;49.272;11.070;2024-02-23T00:33:04;95605.22;;;7.97;79.16
16030;BME280;34770;49.272;11.070;2024-02-23T00:35:29;95625.41;;;8.01;78.98
16030;BME280;34770;49.272;11.070;2024-02-23T00:37:55;95631.13;;;7.98;79.76
16030;BME280;34770;49.272;11.070;2024-02-23T00:40:20;95644.31;;;7.93;79.73
16030;BME280;34770;49.272;11.070;2024-02-23T00:42:46;95647.53;;;7.88;78.56
16030;BME280;34770;49.272;11.070;2024-02-23T00:45:11;95648.22;;;7.82;75.84
16030;BME280;34770;49.272;11.070;2024-02-23T00:47:36;95661.84;;;7.81;75.85
16030;BME280;34770;49.272;11.070;2024-02-23T00:50:03;95683.09;;;7.76;75.15
16030;BME280;34770;49.272;11.070;2024-02-23T00:52:29;95690.34;;;7.67;76.27
16030;BME280;34770;49.272;11.070;2024-02-23T00:54:54;95693.22;;;7.57;73.72
16030;BME280;34770;49.272;11.070;2024-02-23T00:57:19;95697.28;;;7.45;75.03
16030;BME280;34770;49.272;11.070;2024-02-23T00:59:52;95710.06;;;7.35;74.26
16030;BME280;34770;49.272;11.070;2024-02-23T01:02:18;95690.66;;;7.08;74.53
16030;BME280;34770;49.272;11.070;2024-02-23T01:04:43;95690.66;;;7.08;76.08
16030;BME280;34770;49.272;11.070;2024-02-23T01:07:09;95694.72;;;7.04;76.15
16030;BME280;34770;49.272;11.070;2024-02-23T01:09:34;95682.75;;;6.90;77.43
16030;BME280;34770;49.272;11.070;2024-02-23T01:12:00;95675.81;;;6.79;77.73
16030;BME280;34770;49.272;11.070;2024-02-23T01:14:25;95665.38;;;6.68;76.69
16030;BME280;34770;49.272;11.070;2024-02-23T01:16:51;95674.13;;;6.62;76.85
16030;BME280;34770;49.272;11.070;2024-02-23T01:19:16;95699.69;;;6.74;75.57
16030;BME280;34770;49.272;11.070;2024-02-23T01:21:41;95685.56;;;6.72;75.12
16030;BME280;34770;49.272;11.070;2024-02-23T01:24:07;95687.94;;;6.67;75.55
16030;BME280;34770;49.272;11.070;2024-02-23T01:26:32;95703.22;;;6.67;74.80
16030;BME280;34770;49.272;11.070;2024-02-23T01:28:58;95711.28;;;6.59;75.39
16030;BME280;34770;49.272;11.070;2024-02-23T01:31:23;95722.19;;;6.57;75.59
16030;BME280;34770;49.272;11.070;2024-02-23T01:33:49;95719.81;;;6.54;76.98
16030;BME280;34770;49.272;11.070;2024-02-23T01:36:15;95717.94;;;6.47;75.98
16030;BME280;34770;49.272;11.070;2024-02-23T01:38:41;95723.97;;;6.40;76.81
16030;BME280;34770;49.272;11.070;2024-02-23T01:41:08;95732.41;;;6.46;76.05
16030;BME280;34770;49.272;11.070;2024-02-23T01:43:33;95745.81;;;6.37;76.56
16030;BME280;34770;49.272;11.070;2024-02-23T01:45:59;95741.13;;;6.39;77.25
16030;BME280;34770;49.272;11.070;2024-02-23T01:48:26;95734.72;;;6.40;77.43
16030;BME280;34770;49.272;11.070;2024-02-23T01:50:53;95734.22;;;6.37;77.80
16030;BME280;34770;49.272;11.070;2024-02-23T01:53:19;95737.69;;;6.29;78.34
16030;BME280;34770;49.272;11.070;2024-02-23T01:55:46;95737.22;;;6.34;78.61
16030;BME280;34770;49.272;11.070;2024-02-23T01:58:12;95734.28;;;6.19;79.94
16030;BME280;34770;49.272;11.070;2024-02-23T02:00:38;95731.44;;;6.21;78.85
16030;BME280;34770;49.272;11.070;2024-02-23T02:03:04;95736.50;;;6.24;79.89
16030;BME280;34770;49.272;11.070;2024-02-23T02:05:30;95726.91;;;6.21;79.97
16030;BME280;34770;49.272;11.070;2024-02-23T02:07:55;95734.63;;;6.16;80.38
16030;BME280;34770;49.272;11.070;2024-02-23T02:10:25;95748.72;;;6.18;81.17
16030;BME280;34770;49.272;11.070;2024-02-23T02:12:50;95770.78;;;6.22;80.83
16030;BME280;34770;49.272;11.070;2024-02-23T02:15:16;95747.53;;;6.13;80.94
16030;BME280;34770;49.272;11.070;2024-02-23T02:17:41;95753.13;;;6.19;80.90
16030;BME280;34770;49.272;11.070;2024-02-23T02:20:11;95766.63;;;6.02;81.18
16030;BME280;34770;49.272;11.070;2024-02-23T02:22:37;95786.00;;;6.13;81.65
16030;BME280;34770;49.272;11.070;2024-02-23T02:25:02;95753.84;;;6.04;81.34
16030;BME280;34770;49.272;11.070;2024-02-23T02:27:28;95781.47;;;6.14;80.94
16030;BME280;34770;49.272;11.070;2024-02-23T02:29:54;95791.88;;;6.09;81.33
16030;BME280;34770;49.272;11.070;2024-02-23T02:32:19;95787.72;;;6.14;80.96
16030;BME280;34770;49.272;11.070;2024-02-23T02:34:44;95807.16;;;6.08;80.64
16030;BME280;34770;49.272;11.070;2024-02-23T02:37:10;95798.97;;;6.18;79.82
16030;BME280;34770;49.272;11.070;2024-02-23T02:39:36;95815.75;;;6.12;80.03
16030;BME280;34770;49.272;11.070;2024-02-23T02:42:01;95807.59;;;6.04;81.26
16030;BME280;34770;49.272;11.070;2024-02-23T02:44:27;95816.88;;;6.09;80.69
16030;BME280;34770;49.272;11.070;2024-02-23T02:46:56;95815.66;;;6.04;80.86
16030;BME280;34770;49.272;11.070;2024-02-23T02:49:21;95812.88;;;6.13;80.54
16030;BME280;34770;49.272;11.070;2024-02-23T02:51:47;95780.22;;;6.00;80.62
16030;BME280;34770;49.272;11.070;2024-02-23T02:54:12;95786.94;;;6.04;80.46
16030;BME280;34770;49.272;11.070;2024-02-23T02:56:44;95766.34;;;5.87;80.30
16030;BME280;34770;49.272;11.070;2024-02-23T02:59:11;95806.06;;;6.01;80.07
16030;BME280;34770;49.272;11.070;2024-02-23T03:01:37;95790.56;;;5.95;80.08
16030;BME280;34770;49.272;11.070;2024-02-23T03:04:02;95800.09;;;5.90;79.87
16030;BME280;34770;49.272;11.070;2024-02-23T03:06:28;95829.75;;;5.98;80.23
16030;BME280;34770;49.272;11.070;2024-02-23T03:08:53;95826.91;;;5.99;80.82
16030;BME280;34770;49.272;11.070;2024-02-23T03:11:19;95805.09;;;6.02;79.86
16030;BME280;34770;49.272;11.070;2024-02-23T03:13:44;95808.94;;;6.00;80.46
16030;BME280;34770;49.272;11.070;2024-02-23T03:16:20;95818.78;;;5.91;80.05
16030;BME280;34770;49.272;11.070;2024-02-23T03:18:46;95822.69;;;5.97;80.56
16030;BME280;34770;49.272;11.070;2024-02-23T03:21:12;95821.59;;;5.90;79.56
16030;BME280;34770;49.272;11.070;2024-02-23T03:23:39;95835.28;;;5.96;79.13
16030;BME280;34770;49.272;11.070;2024-02-23T03:26:07;95840.50;;;5.98;79.61
16030;BME280;34770;49.272;11.070;2024-02-23T03:28:32;95854.34;;;5.85;79.53
16030;BME280;34770;49.272;11.070;2024-02-23T03:30:59;95850.75;;;5.84;79.64
16030;BME280;34770;49.272;11.070;2024-02-23T03:33:25;95854.34;;;5.85;78.64
16030;BME280;34770;49.272;11.070;2024-02-23T03:35:50;95855.06;;;5.95;78.66
16030;BME280;34770;49.272;11.070;2024-02-23T03:38:16;95859.63;;;5.95;78.69
16030;BME280;34770;49.272;11.070;2024-02-23T03:40:41;95858.41;;;5.89;79.15
16030;BME280;34770;49.272;11.070;2024-02-23T03:43:07;95857.28;;;5.82;78.76
16030;BME280;34770;49.272;11.070;2024-02-23T03:45:33;95840.91;;;5.85;79.04
16030;BME280;34770;49.272;11.070;2024-02-23T03:47:59;95873.56;;;5.98;79.07
16030;BME280;34770;49.272;11.070;2024-02-23T03:50:25;95863.38;;;6.02;79.14
16030;BME280;34770;49.272;11.070;2024-02-23T03:52:50;95860.22;;;6.06;79.36
16030;BME280;34770;49.272;11.070;2024-02-23T03:55:16;95866.16;;;5.92;78.62
16030;BME280;34770;49.272;11.070;2024-02-23T03:57:41;95858.75;;;5.76;79.06
16030;BME280;34770;49.272;11.070;2024-02-23T04:00:07;95848.31;;;5.73;79.37
16030;BME280;34770;49.272;11.070;2024-02-23T04:02:34;95862.59;;;5.74;78.54
16030;BME280;34770;49.272;11.070;2024-02-23T04:05:00;95861.69;;;5.65;78.86
16030;BME280;34770;49.272;11.070;2024-02-23T04:07:25;95856.00;;;5.68;78.60
16030;BME280;34770;49.272;11.070;2024-02-23T04:09:51;95852.63;;;5.66;77.02
16030;BME280;34770;49.272;11.070;2024-02-23T04:12:20;95872.19;;;5.76;76.96
16030;BME280;34770;49.272;11.070;2024-02-23T04:14:45;95849.09;;;5.66;76.22
16030;BME280;34770;49.272;11.070;2024-02-23T04:17:11;95881.63;;;5.63;77.09
16030;BME280;34770;49.272;11.070;2024-02-23T04:19:37;95871.34;;;5.76;74.22
16030;BME280;34770;49.272;11.070;2024-02-23T04:22:03;95872.34;;;5.75;75.60
16030;BME280;34770;49.272;11.070;2024-02-23T04:24:29;95878.50;;;5.85;73.68
16030;BME280;34770;49.272;11.070;2024-02-23T04:26:54;95884.34;;;5.80;74.95
16030;BME280;34770;49.272;11.070;2024-02-23T04:29:20;95883.09;;;5.75;74.06
16030;BME280;34770;49.272;11.070;2024-02-23T04:31:45;95896.16;;;5.88;74.47
16030;BME280;34770;49.272;11.070;2024-02-23T04:34:11;95878.09;;;5.80;74.14
16030;BME280;34770;49.272;11.070;2024-02-23T04:36:36;95897.91;;;5.79;74.96
16030;BME280;34770;49.272;11.070;2024-02-23T04:39:02;95903.44;;;5.77;74.52
16030;BME280;34770;49.272;11.070;2024-02-23T04:41:28;95899.97;;;5.67;76.64
16030;BME280;34770;49.272;11.070;2024-02-23T04:43:53;95894.91;;;5.64;75.34
16030;BME280;34770;49.272;11.070;2024-02-23T04:46:23;95895.81;;;5.73;75.76
16030;BME280;34770;49.272;11.070;2024-02-23T04:48:49;95901.00;;;5.66;76.20
16030;BME280;34770;49.272;11.070;2024-02-23T04:51:14;95899.84;;;5.69;76.60
16030;BME280;34770;49.272;11.070;2024-02-23T04:53:40;95911.25;;;5.71;76.51
16030;BME280;34770;49.272;11.070;2024-02-23T04:56:05;95915.28;;;5.67;76.55
16030;BME280;34770;49.272;11.070;2024-02-23T04:58:31;95923.47;;;5.65;77.63
16030;BME280;34770;49.272;11.070;2024-02-23T05:00:56;95906.41;;;5.57;77.90
16030;BME280;34770;49.272;11.070;2024-02-23T05:03:22;95913.63;;;5.56;78.63
16030;BME280;34770;49.272;11.070;2024-02-23T05:05:47;95910.41;;;5.53;78.75
16030;BME280;34770;49.272;11.070;2024-02-23T05:08:14;95897.28;;;5.50;78.72
16030;BME280;34770;49.272;11.070;2024-02-23T05:10:40;95896.44;;;5.49;78.62
16030;BME280;34770;49.272;11.070;2024-02-23T05:13:05;95901.50;;;5.52;77.98
16030;BME280;34770;49.272;11.070;2024-02-23T05:15:31;95886.25;;;5.53;77.54
16030;BME280;34770;49.272;11.070;2024-02-23T05:17:56;95885.84;;;5.48;78.00
16030;BME280;34770;49.272;11.070;2024-02-23T05:20:22;95901.81;;;5.49;78.43
16030;BME280;34770;49.272;11.070;2024-02-23T05:22:47;95900.28;;;5.47;78.07
16030;BME280;34770;49.272;11.070;2024-02-23T05:25:13;95899.69;;;5.53;77.92
16030;BME280;34770;49.272;11.070;2024-02-23T05:27:39;95902.19;;;5.54;77.43
16030;BME280;34770;49.272;11.070;2024-02-23T05:30:05;95887.16;;;5.44;78.42
16030;BME280;34770;49.272;11.070;2024-02-23T05:32:31;95897.91;;;5.44;79.06
16030;BME280;34770;49.272;11.070;2024-02-23T05:34:57;95882.84;;;5.33;78.76
16030;BME280;34770;49.272;11.070;2024-02-23T05:37:22;95898.59;;;5.46;78.98
16030;BME280;34770;49.272;11.070;2024-02-23T05:39:48;95895.28;;;5.52;79.44
16030;BME280;34770;49.272;11.070;2024-02-23T05:42:13;95887.97;;;5.26;79.35
16030;BME280;34770;49.272;11.070;2024-02-23T05:44:39;95890.44;;;5.38;79.56
16030;BME280;34770;49.272;11.070;2024-02-23T05:47:05;95870.34;;;5.24;79.81
16030;BME280;34770;49.272;11.070;2024-02-23T05:49:30;95886.66;;;5.31;79.71
16030;BME280;34770;49.272;11.070;2024-02-23T05:51:56;95913.47;;;5.40;80.14
16030;BME280;34770;49.272;11.070;2024-02-23T05:54:21;95916.91;;;5.33;80.04
16030;BME280;34770;49.272;11.070;2024-02-23T05:56:46;95925.34;;;5.38;80.26
16030;BME280;34770;49.272;11.070;2024-02-23T05:59:12;95902.69;;;5.22;81.04
16030;BME280;34770;49.272;11.070;2024-02-23T06:01:38;95932.72;;;5.36;80.81
16030;BME280;34770;49.272;11.070;2024-02-23T06:04:03;95937.28;;;5.25;81.13
16030;BME280;34770;49.272;11.070;2024-02-23T06:06:29;95949.56;;;5.28;80.85
16030;BME280;34770;49.272;11.070;2024-02-23T06:08:54;95933.44;;;5.28;81.78
16030;BME280;34770;49.272;11.070;2024-02-23T06:11:20;95931.00;;;5.35;81.47
16030;BME280;34770;49.272;11.070;2024-02-23T06:13:45;95952.78;;;5.32;81.55
16030;BME280;34770;49.272;11.070;2024-02-23T06:16:11;95949.31;;;5.21;81.13
16030;BME280;34770;49.272;11.070;2024-02-23T06:18:38;95961.25;;;5.09;82.00
16030;BME280;34770;49.272;11.070;2024-02-23T06:21:16;95974.25;;;5.04;82.78
16030;BME280;34770;49.272;11.070;2024-02-23T06:23:45;95959.78;;;4.88;83.22
16030;BME280;34770;49.272;11.070;2024-02-23T06:26:11;95996.03;;;5.01;83.48
16030;BME280;34770;49.272;11.070;2024-02-23T06:28:37;95991.53;;;4.92;83.96
16030;BME280;34770;49.272;11.070;2024-02-23T06:31:05;95991.09;;;4.97;84.69
16030;BME280;34770;49.272;11.070;2024-02-23T06:33:31;95983.19;;;4.95;84.68
16030;BME280;34770;49.272;11.070;2024-02-23T06:35:56;95977.41;;;4.90;84.02
16030;BME280;34770;49.272;11.070;2024-02-23T06:38:22;95960.19;;;4.83;84.93
16030;BME280;34770;49.272;11.070;2024-02-23T06:40:47;95976.56;;;4.90;84.95
16030;BME280;34770;49.272;11.070;2024-02-23T06:43:13;95974.34;;;4.85;85.10
16030;BME280;34770;49.272;11.070;2024-02-23T06:45:38;95992.66;;;4.90;85.78
16030;BME280;34770;49.272;11.070;2024-02-23T06:48:04;95988.72;;;4.94;86.03
16030;BME280;34770;49.272;11.070;2024-02-23T06:50:29;95982.44;;;5.03;85.60
16030;BME280;34770;49.272;11.070;2024-02-23T06:52:55;95976.25;;;5.02;85.23
16030;BME280;34770;49.272;11.070;2024-02-23T06:55:20;95983.28;;;5.03;85.99
16030;BME280;34770;49.272;11.070;2024-02-23T06:57:46;95983.59;;;5.00;85.77
16030;BME280;34770;49.272;11.070;2024-02-23T07:00:12;95971.03;;;4.91;85.65
16030;BME280;34770;49.272;11.070;2024-02-23T07:02:38;95990.50;;;5.03;86.25
16030;BME280;34770;49.272;11.070;2024-02-23T07:05:04;95992.94;;;4.96;86.07
16030;BME280;34770;49.272;11.070;2024-02-23T07:07:31;95984.16;;;5.04;87.37
16030;BME280;34770;49.272;11.070;2024-02-23T07:10:01;95974.09;;;5.06;86.47
16030;BME280;34770;49.272;11.070;2024-02-23T07:12:27;95984.94;;;5.14;86.44
16030;BME280;34770;49.272;11.070;2024-02-23T07:14:54;96000.44;;;5.30;83.45
16030;BME280;34770;49.272;11.070;2024-02-23T07:17:20;95992.78;;;5.35;83.09
16030;BME280;34770;49.272;11.070;2024-02-23T07:19:45;95993.72;;;5.43;84.01
16030;BME280;34770;49.272;11.070;2024-02-23T07:22:11;95974.25;;;5.59;84.12
16030;BME280;34770;49.272;11.070;2024-02-23T07:24:41;95964.59;;;5.66;84.97
16030;BME280;34770;49.272;11.070;2024-02-23T07:27:07;95969.97;;;5.66;85.37
16030;BME280;34770;49.272;11.070;2024-02-23T07:29:32;95954.69;;;5.21;83.59
16030;BME280;34770;49.272;11.070;2024-02-23T07:31:57;95997.19;;;5.53;82.02
16030;BME280;34770;49.272;11.070;2024-02-23T07:34:23;96008.56;;;5.65;82.12
16030;BME280;34770;49.272;11.070;2024-02-23T07:36:51;96009.69;;;5.72;81.76
16030;BME280;34770;49.272;11.070;2024-02-23T07:39:17;96006.28;;;5.70;81.70
16030;BME280;34770;49.272;11.070;2024-02-23T07:41:43;96021.97;;;5.74;82.05
16030;BME280;34770;49.272;11.070;2024-02-23T07:44:09;96030.41;;;5.79;82.12
16030;BME280;34770;49.272;11.070;2024-02-23T07:46:34;96038.34;;;5.81;82.64
16030;BME280;34770;49.272;11.070;2024-02-23T07:48:59;96038.69;;;5.68;81.80
16030;BME280;34770;49.272;11.070;2024-02-23T07:51:25;96033.50;;;5.57;82.56
16030;BME280;34770;49.272;11.070;2024-02-23T07:53:50;96026.44;;;5.56;82.80
16030;BME280;34770;49.272;11.070;2024-02-23T07:56:16;96004.84;;;5.48;82.45
16030;BME280;34770;49.272;11.070;2024-02-23T07:58:42;95981.53;;;5.49;83.41
16030;BME280;34770;49.272;11.070;2024-02-23T08:01:07;95987.97;;;5.38;84.14
16030;BME280;34770;49.272;11.070;2024-02-23T08:03:33;95997.44;;;5.33;83.60
16030;BME280;34770;49.272;11.070;2024-02-23T08:05:58;96014.94;;;5.37;83.03
16030;BME280;34770;49.272;11.070;2024-02-23T08:08:24;96014.81;;;5.38;82.67
16030;BME280;34770;49.272;11.070;2024-02-23T08:10:50;96008.59;;;5.38;82.51
16030;BME280;34770;49.272;11.070;2024-02-23T08:13:16;96002.66;;;5.34;82.15
16030;BME280;34770;49.272;11.070;2024-02-23T08:15:43;96014.50;;;5.41;82.17
16030;BME280;34770;49.272;11.070;2024-02-23T08:18:09;96013.59;;;5.50;81.44
16030;BME280;34770;49.272;11.070;2024-02-23T08:20:35;96001.50;;;5.37;81.37
16030;BME280;34770;49.272;11.070;2024-02-23T08:23:01;96031.13;;;5.54;80.83
16030;BME280;34770;49.272;11.070;2024-02-23T08:25:27;96018.38;;;5.56;80.22
16030;BME280;34770;49.272;11.070;2024-02-23T08:27:55;96029.44;;;5.80;79.76
16030;BME280;34770;49.272;11.070;2024-02-23T08:30:20;96029.38;;;5.90;78.80
16030;BME280;34770;49.272;11.070;2024-02-23T08:32:46;96033.09;;;6.07;78.02
16030;BME280;34770;49.272;11.070;2024-02-23T08:35:11;96030.88;;;6.20;76.95
16030;BME280;34770;49.272;11.070;2024-02-23T08:37:37;96020.28;;;6.18;76.69
16030;BME280;34770;49.272;11.070;2024-02-23T08:40:03;96032.19;;;6.33;75.42
16030;BME280;34770;49.272;11.070;2024-02-23T08:42:31;96033.28;;;6.23;74.51
16030;BME280;34770;49.272;11.070;2024-02-23T08:44:56;96038.00;;;6.29;74.13
16030;BME280;34770;49.272;11.070;2024-02-23T08:47:22;96041.72;;;6.46;74.38
16030;BME280;34770;49.272;11.070;2024-02-23T08:49:47;96045.47;;;6.53;72.70
16030;BME280;34770;49.272;11.070;2024-02-23T08:52:13;96051.03;;;6.51;71.04
16030;BME280;34770;49.272;11.070;2024-02-23T08:54:38;96039.25;;;6.34;69.73
16030;BME280;34770;49.272;11.070;2024-02-23T08:57:04;96049.31;;;6.32;67.45
16030;BME280;34770;49.272;11.070;2024-02-23T08:59:30;96035.88;;;6.32;68.22
16030;BME280;34770;49.272;11.070;2024-02-23T09:01:55;96031.41;;;6.23;67.92
16030;BME280;34770;49.272;11.070;2024-02-23T09:04:21;96037.41;;;6.35;67.81
16030;BME280;34770;49.272;11.070;2024-02-23T09:06:46;96027.81;;;6.32;66.12
16030;BME280;34770;49.272;11.070;2024-02-23T09:09:12;96017.75;;;6.17;67.56
16030;BME280;34770;49.272;11.070;2024-02-23T09:11:37;96030.19;;;6.35;67.55
16030;BME280;34770;49.272;11.070;2024-02-23T09:14:03;96029.50;;;6.33;67.82
16030;BME280;34770;49.272;11.070;2024-02-23T09:16:29;96052.47;;;6.28;67.49
16030;BME280;34770;49.272;11.070;2024-02-23T09:18:54;96079.84;;;6.41;67.23
16030;BME280;34770;49.272;11.070;2024-02-23T09:21:20;96079.38;;;6.46;67.90
16030;BME280;34770;49.272;11.070;2024-02-23T09:23:45;96078.91;;;6.50;67.36
16030;BME280;34770;49.272;11.070;2024-02-23T09:26:11;96042.34;;;6.39;67.80
16030;BME280;34770;49.272;11.070;2024-02-23T09:31:03;96059.41;;;6.48;66.79
16030;BME280;34770;49.272;11.070;2024-02-23T09:33:30;96061.31;;;6.56;66.60
16030;BME280;34770;49.272;11.070;2024-02-23T09:35:56;96048.66;;;6.48;66.53
16030;BME280;34770;49.272;11.070;2024-02-23T09:38:22;96065.97;;;6.71;66.62
16030;BME280;34770;49.272;11.070;2024-02-23T09:40:50;96067.38;;;6.75;66.51
16030;BME280;34770;49.272;11.070;2024-02-23T09:43:16;96060.78;;;6.70;66.09
16030;BME280;34770;49.272;11.070;2024-02-23T09:45:42;96076.81;;;6.79;66.13
16030;BME280;34770;49.272;11.070;2024-02-23T09:48:10;96081.06;;;6.82;65.37
16030;BME280;34770;49.272;11.070;2024-02-23T09:50:37;96084.56;;;6.82;64.28
16030;BME280;34770;49.272;11.070;2024-02-23T09:53:04;96088.22;;;6.73;64.40
16030;BME280;34770;49.272;11.070;2024-02-23T09:55:30;96093.81;;;6.80;64.18
16030;BME280;34770;49.272;11.070;2024-02-23T09:57:57;96090.88;;;6.91;64.58
16030;BME280;34770;49.272;11.070;2024-02-23T10:00:24;96084.88;;;6.97;64.08
16030;BME280;34770;49.272;11.070;2024-02-23T10:02:50;96092.41;;;6.93;63.09
16030;BME280;34770;49.272;11.070;2024-02-23T10:05:16;96094.53;;;6.82;64.37
16030;BME280;34770;49.272;11.070;2024-02-23T10:07:42;96088.19;;;6.91;63.26
16030;BME280;34770;49.272;11.070;2024-02-23T10:10:09;96083.81;;;6.90;62.94
16030;BME280;34770;49.272;11.070;2024-02-23T10:12:36;96090.56;;;6.94;64.01
16030;BME280;34770;49.272;11.070;2024-02-23T10:15:03;96093.38;;;6.84;63.14
16030;BME280;34770;49.272;11.070;2024-02-23T10:17:31;96087.88;;;6.94;63.73
16030;BME280;34770;49.272;11.070;2024-02-23T10:19:58;96091.97;;;6.80;62.65
16030;BME280;34770;49.272;11.070;2024-02-23T10:22:24;96091.66;;;6.83;62.61
16030;BME280;34770;49.272;11.070;2024-02-23T10:24:53;96085.28;;;6.84;63.30
16030;BME280;34770;49.272;11.070;2024-02-23T10:27:19;96091.91;;;6.90;63.35
16030;BME280;34770;49.272;11.070;2024-02-23T10:29:44;96091.34;;;6.86;63.51
16030;BME280;34770;49.272;11.070;2024-02-23T10:32:15;96091.19;;;6.88;63.02
16030;BME280;34770;49.272;11.070;2024-02-23T10:34:42;96104.13;;;6.84;63.06
16030;BME280;34770;49.272;11.070;2024-02-23T10:37:08;96104.56;;;6.80;63.54
16030;BME280;34770;49.272;11.070;2024-02-23T10:39:36;96099.72;;;6.66;64.56
16030;BME280;34770;49.272;11.070;2024-02-23T10:42:03;96103.72;;;6.79;64.10
16030;BME280;34770;49.272;11.070;2024-02-23T10:44:30;96095.13;;;6.76;63.89
16030;BME280;34770;49.272;11.070;2024-02-23T10:46:58;96098.81;;;6.75;65.21
16030;BME280;34770;49.272;11.070;2024-02-23T10:49:24;96094.28;;;6.75;65.30
16030;BME280;34770;49.272;11.070;2024-02-23T10:51:53;96086.97;;;6.85;65.65
16030;BME280;34770;49.272;11.070;2024-02-23T10:54:19;96084.81;;;6.89;65.53
16030;BME280;34770;49.272;11.070;2024-02-23T10:56:47;96076.06;;;6.87;65.69
16030;BME280;34770;49.272;11.070;2024-02-23T10:59:13;96067.25;;;6.85;66.81
16030;BME280;34770;49.272;11.070;2024-02-23T11:01:39;96092.09;;;6.96;67.26
16030;BME280;34770;49.272;11.070;2024-02-23T11:04:06;96088.09;;;7.00;67.85
16030;BME280;34770;49.272;11.070;2024-02-23T11:06:33;96072.00;;;7.09;68.44
16030;BME280;34770;49.272;11.070;2024-02-23T11:09:06;96084.22;;;7.21;67.57
16030;BME280;34770;49.272;11.070;2024-02-23T11:11:36;96070.28;;;7.25;68.41
16030;BME280;34770;49.272;11.070;2024-02-23T11:14:03;96070.69;;;7.38;67.85
16030;BME280;34770;49.272;11.070;2024-02-23T11:16:31;96048.31;;;7.38;67.52
16030;BME280;34770;49.272;11.070;2024-02-23T11:19:08;96058.41;;;7.44;68.29
16030;BME280;34770;49.272;11.070;2024-02-23T11:21:38;96062.19;;;7.25;68.58
16030;BME280;34770;49.272;11.070;2024-02-23T11:24:04;96073.63;;;7.27;69.36
16030;BME280;34770;49.272;11.070;2024-02-23T11:26:30;96073.59;;;7.19;70.05
16030;BME280;34770;49.272;11.070;2024-02-23T11:28:57;96073.41;;;7.13;70.47
16030;BME280;34770;49.272;11.070;2024-02-23T11:31:24;96073.47;;;7.03;70.96
16030;BME280;34770;49.272;11.070;2024-02-23T11:33:52;96053.72;;;6.94;72.05
16030;BME280;34770;49.272;11.070;2024-02-23T11:36:25;96070.34;;;6.90;71.90
16030;BME280;34770;49.272;11.070;2024-02-23T11:38:53;96052.38;;;6.90;72.10
16030;BME280;34770;49.272;11.070;2024-02-23T11:41:25;96062.78;;;6.93;72.71
16030;BME280;34770;49.272;11.070;2024-02-23T11:43:51;96059.97;;;6.77;72.57
16030;BME280;34770;49.272;11.070;2024-02-23T11:46:18;96076.66;;;6.98;72.67
16030;BME280;34770;49.272;11.070;2024-02-23T11:48:44;96080.75;;;7.11;72.90
16030;BME280;34770;49.272;11.070;2024-02-23T11:51:14;96074.56;;;7.10;72.71
16030;BME280;34770;49.272;11.070;2024-02-23T11:53:40;96053.38;;;7.15;72.52
16030;BME280;34770;49.272;11.070;2024-02-23T11:56:06;96059.19;;;7.28;72.37
16030;BME280;34770;49.272;11.070;2024-02-23T11:58:34;96059.94;;;7.13;71.75
16030;BME280;34770;49.272;11.070;2024-02-23T12:01:01;96054.00;;;7.09;70.84
16030;BME280;34770;49.272;11.070;2024-02-23T12:03:31;96050.78;;;7.06;69.99
16030;BME280;34770;49.272;11.070;2024-02-23T12:06:02;96044.19;;;7.00;69.86
16030;BME280;34770;49.272;11.070;2024-02-23T12:08:30;96053.47;;;7.06;70.26
16030;BME280;34770;49.272;11.070;2024-02-23T12:10:58;96049.25;;;7.03;70.52
16030;BME280;34770;49.272;11.070;2024-02-23T12:13:26;96035.50;;;6.88;70.37
16030;BME280;34770;49.272;11.070;2024-02-23T12:15:53;96045.94;;;7.09;70.78
16030;BME280;34770;49.272;11.070;2024-02-23T12:18:22;96030.94;;;7.07;70.64
16030;BME280;34770;49.272;11.070;2024-02-23T12:21:07;96039.56;;;7.10;69.95
16030;BME280;34770;49.272;11.070;2024-02-23T12:23:43;96034.16;;;7.10;70.36
16030;BME280;34770;49.272;11.070;2024-02-23T12:26:11;96031.34;;;7.20;70.78
16030;BME280;34770;49.272;11.070;2024-02-23T12:28:38;96013.56;;;7.01;70.74
16030;BME280;34770;49.272;11.070;2024-02-23T12:31:04;96019.69;;;7.11;70.34
16030;BME280;34770;49.272;11.070;2024-02-23T12:33:32;96041.97;;;7.21;69.75
16030;BME280;34770;49.272;11.070;2024-02-23T12:35:58;96027.97;;;7.18;69.41
16030;BME280;34770;49.272;11.070;2024-02-23T12:38:26;96036.69;;;7.12;70.02
16030;BME280;34770;49.272;11.070;2024-02-23T12:40:52;96032.25;;;7.28;68.95
16030;BME280;34770;49.272;11.070;2024-02-23T12:43:18;96032.28;;;7.36;69.35
16030;BME280;34770;49.272;11.070;2024-02-23T12:45:46;96024.22;;;7.36;68.82
16030;BME280;34770;49.272;11.070;2024-02-23T12:48:15;96024.84;;;7.30;67.33
16030;BME280;34770;49.272;11.070;2024-02-23T12:50:40;96019.31;;;7.06;66.33
16030;BME280;34770;49.272;11.070;2024-02-23T12:53:06;95993.91;;;6.83;66.20
16030;BME280;34770;49.272;11.070;2024-02-23T12:55:32;96006.31;;;6.76;65.67
16030;BME280;34770;49.272;11.070;2024-02-23T12:57:58;96019.97;;;6.82;65.24